Terminal Aerodrome Forecast
Issued by NWS

Home | Current Version | Previous Version | Text Only | Print | Product List | Glossary On
Versions: 1 2 3 4 5 6 7 8 9 10 11 12 13 14 15 16 17 18 19 20 21 22 23 24 25
013
FTUS46 KSEW 280106 AAA
TAFPAE
TAF AMD
KPAE 280106Z 2801/2824 16017G23KT P6SM SCT024 BKN150
      TEMPO 2801/2804 -SHRA BKN024 OVC150
     FM280400 18012KT P6SM VCSH SCT025 BKN050 OVC080
     FM281000 18010KT P6SM -RA BKN025 OVC050
     FM282000 18012G22KT P6SM -RA OVC020=

USA.gov is the U.S. government's official web portal to all federal, state and local government web resources and services.